Time;durP1;ratioP1;P1;durP2;ratioP2;P2;SDS_P1;SDS_P2;PMS_P1;PMS_P2;Temp;Humidity;BMP_temperature;BMP_pressure;BME280_temperature;BME280_humidity;BME280_pressure;Samples;Min_cycle;Max_cycle;Signal;HPM_P1;HPM_P2
2023/08/10 00:00:16;;;;;;;5.95;1.90;;;14.60;76.20;;;;;;5007431;28;20282;-75
2023/08/10 00:02:43;;;;;;;6.20;1.70;;;14.60;76.30;;;;;;4990872;28;20050;-75
2023/08/10 00:05:10;;;;;;;7.53;1.88;;;14.50;76.40;;;;;;5007739;28;20553;-75
2023/08/10 00:07:40;;;;;;;6.15;2.63;;;14.50;76.50;;;;;;5009586;28;20083;-75
2023/08/10 00:10:08;;;;;;;5.43;2.10;;;14.50;76.50;;;;;;5007502;28;20050;-75
2023/08/10 00:12:38;;;;;;;5.28;1.38;;;14.60;76.40;;;;;;5007265;28;20782;-75
2023/08/10 00:15:05;;;;;;;5.68;1.48;;;14.60;76.50;;;;;;5007384;28;20054;-75
2023/08/10 00:17:34;;;;;;;4.93;1.60;;;14.60;76.40;;;;;;5003809;28;20931;-75
2023/08/10 00:20:05;;;;;;;4.50;1.60;;;14.60;76.70;;;;;;5003935;28;20046;-75
2023/08/10 00:22:32;;;;;;;6.10;1.37;;;14.60;76.90;;;;;;5023792;28;20082;-75
2023/08/10 00:24:59;;;;;;;5.55;1.60;;;14.60;76.80;;;;;;5007531;28;21200;-75
2023/08/10 00:27:26;;;;;;;5.50;1.90;;;14.50;76.80;;;;;;4987880;28;20047;-75
2023/08/10 00:29:55;;;;;;;5.50;1.50;;;14.50;76.80;;;;;;4991071;28;20051;-75
2023/08/10 00:32:23;;;;;;;4.68;1.42;;;14.60;76.80;;;;;;4987769;28;20137;-75
2023/08/10 00:34:50;;;;;;;5.17;1.43;;;14.50;76.90;;;;;;4998144;28;20861;-75
2023/08/10 00:37:17;;;;;;;6.75;1.83;;;14.60;76.90;;;;;;5006816;28;20725;-75
2023/08/10 00:39:45;;;;;;;6.18;1.50;;;14.50;77.00;;;;;;4990600;28;20054;-75
2023/08/10 00:42:13;;;;;;;5.88;1.80;;;14.50;77.30;;;;;;5020185;28;20055;-75
2023/08/10 00:44:40;;;;;;;4.85;1.45;;;14.50;77.10;;;;;;5011672;28;20062;-75
2023/08/10 00:47:09;;;;;;;6.03;1.50;;;14.50;77.20;;;;;;5020998;28;20071;-75
2023/08/10 00:49:37;;;;;;;8.85;1.70;;;14.50;77.20;;;;;;4987564;28;20377;-75
2023/08/10 00:52:09;;;;;;;5.30;1.80;;;14.50;77.20;;;;;;4988468;28;20154;-75
2023/08/10 00:54:36;;;;;;;5.88;1.63;;;14.50;77.30;;;;;;5002402;28;20082;-75
2023/08/10 00:57:05;;;;;;;5.40;1.50;;;14.50;77.30;;;;;;4971442;28;20603;-75
2023/08/10 00:59:34;;;;;;;8.00;1.67;;;14.50;77.40;;;;;;4970449;28;20441;-75
2023/08/10 01:02:01;;;;;;;6.85;1.65;;;14.50;77.30;;;;;;4988364;28;20263;-75
2023/08/10 01:04:29;;;;;;;6.72;1.50;;;14.60;77.30;;;;;;4987568;28;20055;-75
2023/08/10 01:07:03;;;;;;;5.65;1.67;;;14.60;77.50;;;;;;4970917;28;20082;-75
2023/08/10 01:09:38;;;;;;;5.38;1.80;;;14.60;77.50;;;;;;4989136;28;20078;-75
2023/08/10 01:12:17;;;;;;;6.17;1.67;;;14.60;77.40;;;;;;4991056;28;20134;-75
2023/08/10 01:14:50;;;;;;;5.50;1.70;;;14.60;77.40;;;;;;5006900;28;20269;-75
2023/08/10 01:17:24;;;;;;;5.05;1.70;;;14.60;77.30;;;;;;4990526;28;20441;-75
2023/08/10 01:19:55;;;;;;;4.00;1.50;;;14.60;77.40;;;;;;4990200;28;20046;-75
2023/08/10 01:22:29;;;;;;;6.15;2.00;;;14.60;77.30;;;;;;5006605;28;20637;-75
2023/08/10 01:25:03;;;;;;;6.93;2.07;;;14.60;77.50;;;;;;4989083;28;20170;-75
2023/08/10 01:27:32;;;;;;;6.75;2.13;;;14.60;77.50;;;;;;4990549;28;20258;-74
2023/08/10 01:30:00;;;;;;;6.75;1.80;;;14.60;77.50;;;;;;4988966;28;20061;-75
2023/08/10 01:32:28;;;;;;;4.80;1.58;;;14.60;77.50;;;;;;4973060;28;20567;-75
2023/08/10 01:34:55;;;;;;;3.92;1.33;;;14.50;77.50;;;;;;4990932;28;20157;-75
2023/08/10 01:37:25;;;;;;;5.47;1.80;;;14.50;77.50;;;;;;4973199;28;20047;-75
2023/08/10 01:39:52;;;;;;;5.10;1.70;;;14.50;77.50;;;;;;4973897;28;20691;-75
2023/08/10 01:42:20;;;;;;;7.07;1.80;;;14.50;77.40;;;;;;4974008;28;20125;-75
2023/08/10 01:44:47;;;;;;;5.22;1.75;;;14.50;77.50;;;;;;5006768;28;20513;-75
2023/08/10 01:47:21;;;;;;;6.80;1.88;;;14.50;77.50;;;;;;4973349;28;20046;-75
2023/08/10 01:49:54;;;;;;;8.43;2.10;;;14.50;77.50;;;;;;4990081;28;20142;-75
2023/08/10 01:52:25;;;;;;;5.35;1.50;;;14.40;77.60;;;;;;4990215;28;20251;-75
2023/08/10 01:54:54;;;;;;;6.18;1.80;;;14.40;77.60;;;;;;4991466;28;20125;-74
2023/08/10 01:57:23;;;;;;;5.18;1.50;;;14.40;77.70;;;;;;4973450;28;20601;-75
2023/08/10 01:59:51;;;;;;;4.75;1.45;;;14.40;77.70;;;;;;4989754;28;20081;-74
2023/08/10 02:02:19;;;;;;;6.10;1.70;;;14.50;77.60;;;;;;5006042;28;20130;-75
2023/08/10 02:04:47;;;;;;;5.15;1.60;;;14.50;77.60;;;;;;4973613;28;20774;-75
2023/08/10 02:07:14;;;;;;;7.43;2.10;;;14.50;77.50;;;;;;4973077;28;20798;-75
2023/08/10 02:09:43;;;;;;;6.97;2.00;;;14.50;77.50;;;;;;4991281;28;20051;-75
2023/08/10 02:12:10;;;;;;;6.90;2.22;;;14.50;77.50;;;;;;4973404;28;20479;-75
2023/08/10 02:14:38;;;;;;;4.17;1.90;;;14.60;77.50;;;;;;4991888;28;20086;-74
2023/08/10 02:17:05;;;;;;;5.63;1.73;;;14.60;77.50;;;;;;4973413;28;21051;-75
2023/08/10 02:19:32;;;;;;;6.22;1.80;;;14.60;77.50;;;;;;4972667;28;20042;-74
2023/08/10 02:21:59;;;;;;;4.40;1.90;;;14.60;77.40;;;;;;4989583;28;20497;-74
2023/08/10 02:24:26;;;;;;;6.32;1.70;;;14.60;77.30;;;;;;4987027;28;20121;-75
2023/08/10 02:26:54;;;;;;;5.87;1.77;;;14.60;77.20;;;;;;5008970;28;20047;-75
2023/08/10 02:29:21;;;;;;;6.80;1.73;;;14.60;77.10;;;;;;4992923;28;20350;-74
2023/08/10 02:31:52;;;;;;;4.03;1.60;;;14.60;77.00;;;;;;4992479;28;20054;-75
2023/08/10 02:34:20;;;;;;;4.82;2.05;;;14.60;76.80;;;;;;5008896;28;20058;-75
2023/08/10 02:36:47;;;;;;;5.05;1.58;;;14.60;76.70;;;;;;5008737;28;20047;-75
2023/08/10 02:39:15;;;;;;;5.73;2.20;;;14.60;76.50;;;;;;5008472;28;20158;-75
2023/08/10 02:41:44;;;;;;;5.43;1.90;;;14.60;76.50;;;;;;5009971;28;20266;-74
2023/08/10 02:44:12;;;;;;;6.50;1.80;;;14.60;76.60;;;;;;5008849;28;20050;-74
2023/08/10 02:46:41;;;;;;;5.88;1.98;;;14.60;76.70;;;;;;5008855;28;20081;-74
2023/08/10 02:49:10;;;;;;;4.15;1.70;;;14.60;76.80;;;;;;5008693;28;20046;-74
2023/08/10 02:51:38;;;;;;;5.43;1.80;;;14.60;76.80;;;;;;4992073;28;20133;-75
2023/08/10 02:54:06;;;;;;;5.70;1.50;;;14.60;76.90;;;;;;5009493;28;20266;-74
2023/08/10 02:56:33;;;;;;;5.70;1.63;;;14.60;76.70;;;;;;5007105;28;20457;-75
2023/08/10 02:59:00;;;;;;;6.47;1.85;;;14.60;76.60;;;;;;4991190;28;20051;-74
2023/08/10 03:01:27;;;;;;;5.47;1.70;;;14.60;76.70;;;;;;5025158;28;20054;-75
2023/08/10 03:03:54;;;;;;;6.40;1.57;;;14.60;76.90;;;;;;5008611;28;20055;-75
2023/08/10 03:06:22;;;;;;;5.28;1.70;;;14.60;77.00;;;;;;5008482;28;20772;-74
2023/08/10 03:08:50;;;;;;;6.38;1.50;;;14.60;77.00;;;;;;5008526;28;20042;-74
2023/08/10 03:11:18;;;;;;;6.05;1.60;;;14.60;77.00;;;;;;5008148;28;20046;-74
2023/08/10 03:13:45;;;;;;;11.13;2.00;;;14.60;77.10;;;;;;5008851;28;20052;-74
2023/08/10 03:16:13;;;;;;;5.83;1.60;;;14.60;77.20;;;;;;5008083;28;20042;-74
2023/08/10 03:18:40;;;;;;;6.63;1.77;;;14.60;77.20;;;;;;5008576;28;20689;-74
2023/08/10 03:21:08;;;;;;;4.45;1.60;;;14.50;77.30;;;;;;5008071;28;20814;-74
2023/08/10 03:23:36;;;;;;;4.72;1.45;;;14.50;77.40;;;;;;5024985;28;20050;-74
2023/08/10 03:26:03;;;;;;;5.53;1.80;;;14.60;77.50;;;;;;5008467;28;20121;-74
2023/08/10 03:28:30;;;;;;;4.63;1.60;;;14.50;77.50;;;;;;5069665;22;20042;-74
2023/08/10 03:30:57;;;;;;;5.72;1.70;;;14.50;77.50;;;;;;5010369;28;20249;-74
2023/08/10 03:33:24;;;;;;;4.95;1.58;;;14.50;77.60;;;;;;5029149;28;20058;-74
2023/08/10 03:35:52;;;;;;;7.30;1.50;;;14.50;77.70;;;;;;5027978;28;20053;-74
2023/08/10 03:38:20;;;;;;;6.10;1.90;;;14.50;77.70;;;;;;5012017;28;20046;-74
2023/08/10 03:40:48;;;;;;;7.90;1.83;;;14.50;77.70;;;;;;5011466;28;20050;-74
2023/08/10 03:43:15;;;;;;;4.20;1.33;;;14.50;77.70;;;;;;5027640;28;20758;-74
2023/08/10 03:45:44;;;;;;;5.65;1.60;;;14.50;77.60;;;;;;5011388;28;20527;-74
2023/08/10 03:48:11;;;;;;;5.60;1.58;;;14.50;77.60;;;;;;5027939;28;20112;-74
2023/08/10 03:50:39;;;;;;;5.43;1.40;;;14.50;77.70;;;;;;5010799;28;20389;-74
2023/08/10 03:53:07;;;;;;;5.97;1.63;;;14.50;77.70;;;;;;5027203;28;20984;-74
2023/08/10 03:55:35;;;;;;;4.15;1.58;;;14.50;77.50;;;;;;5010639;28;20281;-74
2023/08/10 03:58:04;;;;;;;5.70;1.52;;;14.50;77.70;;;;;;5027551;28;20061;-74
2023/08/10 04:00:31;;;;;;;4.22;1.60;;;14.50;77.60;;;;;;5011170;28;20133;-74
2023/08/10 04:03:00;;;;;;;3.88;1.40;;;14.50;77.60;;;;;;5027546;28;20054;-74
2023/08/10 04:05:28;;;;;;;7.53;1.67;;;14.50;77.50;;;;;;5011198;28;20539;-74
2023/08/10 04:07:55;;;;;;;5.72;1.40;;;14.60;77.60;;;;;;5027668;28;20748;-74
2023/08/10 04:10:22;;;;;;;4.22;1.60;;;14.60;77.80;;;;;;5010502;28;20053;-74
2023/08/10 04:12:49;;;;;;;5.35;1.50;;;14.60;77.90;;;;;;5010943;28;20057;-74
2023/08/10 04:15:19;;;;;;;5.07;1.65;;;14.60;78.00;;;;;;5028916;28;20086;-74
2023/08/10 04:17:46;;;;;;;6.17;1.63;;;14.60;77.90;;;;;;5027422;28;20050;-74
2023/08/10 04:20:14;;;;;;;4.72;1.50;;;14.60;78.00;;;;;;5009578;28;20264;-74
2023/08/10 04:22:41;;;;;;;5.07;1.60;;;14.60;78.20;;;;;;5019118;28;20109;-74
2023/08/10 04:25:08;;;;;;;6.60;1.50;;;14.60;77.70;;;;;;5028515;28;20496;-74
2023/08/10 04:27:36;;;;;;;5.65;1.40;;;14.60;77.70;;;;;;5028647;28;20164;-74
2023/08/10 04:30:04;;;;;;;7.70;1.80;;;14.60;78.00;;;;;;5027083;28;20056;-74
2023/08/10 04:32:33;;;;;;;6.15;1.70;;;14.60;78.00;;;;;;5019164;28;20266;-74
2023/08/10 04:35:00;;;;;;;4.68;1.60;;;14.60;78.00;;;;;;5027197;28;20533;-74
2023/08/10 04:37:28;;;;;;;5.65;1.58;;;14.60;78.00;;;;;;5026860;28;20053;-74
2023/08/10 04:39:55;;;;;;;5.95;1.85;;;14.60;78.10;;;;;;5026990;28;20696;-74
2023/08/10 04:42:22;;;;;;;6.67;1.77;;;14.60;77.80;;;;;;5028434;28;20054;-74
2023/08/10 04:44:49;;;;;;;6.32;1.92;;;14.60;77.90;;;;;;5031714;28;20264;-74
2023/08/10 04:47:17;;;;;;;6.90;1.60;;;14.60;77.90;;;;;;5032215;28;21001;-74
2023/08/10 04:49:46;;;;;;;4.05;1.50;;;14.70;78.10;;;;;;5031037;28;20567;-74
2023/08/10 04:52:15;;;;;;;5.63;1.63;;;14.70;78.20;;;;;;5030607;28;20081;-74
2023/08/10 04:54:44;;;;;;;6.73;1.90;;;14.70;78.40;;;;;;5030443;28;20046;-74
2023/08/10 04:57:11;;;;;;;5.82;1.70;;;14.70;78.60;;;;;;5030438;28;20296;-74
2023/08/10 04:59:39;;;;;;;5.30;1.98;;;14.70;78.50;;;;;;5014045;28;20074;-74
2023/08/10 05:02:06;;;;;;;4.68;1.83;;;14.70;78.70;;;;;;5031424;28;20054;-74
2023/08/10 05:04:33;;;;;;;5.57;2.03;;;14.70;78.80;;;;;;5012606;28;20128;-74
2023/08/10 05:07:01;;;;;;;6.53;1.90;;;14.70;78.90;;;;;;5029501;28;20049;-74
2023/08/10 05:09:28;;;;;;;6.05;2.10;;;14.70;78.90;;;;;;5029748;28;20409;-74
2023/08/10 05:11:55;;;;;;;4.97;1.98;;;14.70;79.00;;;;;;5029438;28;20058;-74
2023/08/10 05:14:22;;;;;;;5.53;2.22;;;14.70;78.90;;;;;;5012846;28;20042;-74
2023/08/10 05:16:50;;;;;;;6.32;1.90;;;14.70;79.00;;;;;;5030858;28;20171;-74
2023/08/10 05:19:18;;;;;;;6.60;1.80;;;14.70;79.00;;;;;;5029412;28;20054;-74
2023/08/10 05:21:45;;;;;;;5.43;2.05;;;14.70;79.00;;;;;;5029428;28;20245;-74
2023/08/10 05:24:13;;;;;;;4.68;2.28;;;14.80;79.00;;;;;;5013314;28;20042;-74
2023/08/10 05:26:42;;;;;;;4.95;1.92;;;14.80;79.10;;;;;;5031964;28;20050;-74
2023/08/10 05:29:09;;;;;;;5.47;1.95;;;14.80;79.10;;;;;;5029872;28;20057;-74
2023/08/10 05:31:36;;;;;;;5.87;2.20;;;14.80;79.20;;;;;;5029243;28;20050;-74
2023/08/10 05:34:03;;;;;;;3.75;1.80;;;14.80;79.20;;;;;;5029769;28;20679;-74
2023/08/10 05:36:32;;;;;;;6.07;1.95;;;14.80;79.10;;;;;;5013302;28;20050;-74
2023/08/10 05:39:00;;;;;;;5.18;1.83;;;14.80;79.30;;;;;;5031232;28;20140;-74
2023/08/10 05:41:29;;;;;;;6.45;2.10;;;14.80;79.50;;;;;;5029570;28;20141;-74
2023/08/10 05:43:56;;;;;;;6.83;1.97;;;14.80;79.50;;;;;;5028238;28;20500;-74
2023/08/10 05:46:23;;;;;;;6.60;2.22;;;14.80;79.50;;;;;;5026586;28;20274;-75
2023/08/10 05:48:49;;;;;;;5.68;2.47;;;14.80;79.60;;;;;;5018963;28;20053;-75
2023/08/10 05:51:17;;;;;;;8.98;2.40;;;14.90;79.70;;;;;;5022777;28;20426;-75
2023/08/10 05:53:45;;;;;;;5.97;2.35;;;14.90;79.70;;;;;;5016905;28;20109;-75
2023/08/10 05:56:12;;;;;;;6.03;2.70;;;14.90;79.80;;;;;;5018645;28;20054;-75
2023/08/10 05:58:40;;;;;;;8.40;2.90;;;14.90;79.90;;;;;;5017619;28;20292;-74
2023/08/10 06:01:08;;;;;;;6.75;2.50;;;14.90;80.00;;;;;;5019344;28;20157;-75
2023/08/10 06:03:36;;;;;;;7.13;2.20;;;15.00;80.00;;;;;;5018970;28;20050;-74
2023/08/10 06:09:46;;;;;;;4.40;2.10;;;15.00;80.10;;;;;;5026869;28;20054;-74
2023/08/10 06:12:13;;;;;;;7.32;2.20;;;15.00;80.10;;;;;;5023811;28;20269;-74
2023/08/10 06:14:41;;;;;;;6.80;2.28;;;15.00;80.20;;;;;;5017316;28;20976;-75
2023/08/10 06:17:09;;;;;;;4.63;2.05;;;15.00;80.20;;;;;;5018221;28;20060;-74
2023/08/10 06:19:36;;;;;;;6.70;2.22;;;15.00;80.20;;;;;;5024866;28;20090;-75
2023/08/10 06:22:03;;;;;;;7.87;2.37;;;15.00;80.30;;;;;;5018518;28;20045;-76
2023/08/10 06:24:31;;;;;;;5.80;2.30;;;15.10;80.30;;;;;;5003372;28;20408;-76
2023/08/10 06:26:59;;;;;;;6.03;2.00;;;15.20;80.30;;;;;;5022496;28;20084;-75
2023/08/10 06:29:27;;;;;;;7.43;1.92;;;15.20;80.20;;;;;;5011793;28;20792;-76
2023/08/10 06:31:56;;;;;;;4.45;2.05;;;15.20;80.20;;;;;;5026983;28;20074;-76
2023/08/10 06:34:23;;;;;;;6.03;1.97;;;15.20;80.30;;;;;;5008140;28;20141;-75
2023/08/10 06:36:50;;;;;;;5.25;1.65;;;15.20;80.20;;;;;;5017550;28;20286;-75
2023/08/10 06:39:18;;;;;;;4.88;1.60;;;15.20;80.20;;;;;;4992492;28;20133;-76
2023/08/10 06:41:45;;;;;;;4.32;1.48;;;15.30;80.20;;;;;;5008379;28;20536;-75
2023/08/10 06:44:13;;;;;;;6.72;1.67;;;15.30;80.10;;;;;;5010391;28;20057;-76
2023/08/10 06:46:40;;;;;;;5.53;1.47;;;15.30;79.90;;;;;;5013798;28;20054;-76
2023/08/10 06:49:08;;;;;;;5.60;1.40;;;15.40;79.50;;;;;;5018551;28;20266;-76
2023/08/10 06:51:35;;;;;;;3.58;1.08;;;15.40;79.50;;;;;;5028596;28;20065;-76
2023/08/10 06:54:02;;;;;;;5.07;0.90;;;15.40;79.30;;;;;;5029546;28;20137;-76
2023/08/10 06:56:30;;;;;;;4.72;1.25;;;15.40;79.00;;;;;;5008694;28;20149;-76
2023/08/10 06:58:59;;;;;;;3.90;1.00;;;15.50;79.00;;;;;;5015009;28;20073;-76
2023/08/10 07:01:26;;;;;;;4.35;1.30;;;15.50;79.00;;;;;;5029709;28;20260;-76
2023/08/10 07:03:54;;;;;;;4.35;0.80;;;15.50;79.00;;;;;;5027726;28;20065;-76
2023/08/10 07:06:23;;;;;;;4.57;1.05;;;15.60;78.90;;;;;;5009965;28;20132;-76
2023/08/10 07:08:52;;;;;;;7.88;1.10;;;15.60;78.60;;;;;;5027847;28;20520;-76
2023/08/10 07:11:19;;;;;;;3.00;0.70;;;15.60;78.60;;;;;;5010942;28;20643;-76
2023/08/10 07:13:48;;;;;;;4.68;0.75;;;15.70;78.00;;;;;;5022248;28;20249;-76
2023/08/10 07:16:17;;;;;;;2.92;0.68;;;15.80;77.60;;;;;;5028536;28;20518;-76
2023/08/10 07:18:44;;;;;;;6.57;0.80;;;15.80;77.40;;;;;;5028423;28;20052;-76
2023/08/10 07:21:11;;;;;;;4.18;0.90;;;15.80;76.90;;;;;;5028594;28;20054;-76
2023/08/10 07:23:40;;;;;;;5.27;0.90;;;15.90;76.60;;;;;;5028531;28;20053;-76
2023/08/10 07:26:07;;;;;;;4.95;0.63;;;15.90;76.50;;;;;;5011841;28;20281;-76
2023/08/10 07:28:35;;;;;;;5.35;0.98;;;16.00;76.30;;;;;;5027786;28;20133;-76
2023/08/10 07:31:03;;;;;;;4.28;1.05;;;16.00;76.30;;;;;;5020273;28;20838;-76
2023/08/10 07:33:30;;;;;;;4.50;1.13;;;16.00;76.50;;;;;;5020118;28;20058;-76
2023/08/10 07:36:01;;;;;;;5.23;1.03;;;16.10;76.40;;;;;;5011451;28;20050;-75
2023/08/10 07:38:28;;;;;;;4.13;0.85;;;16.10;76.20;;;;;;5028266;28;20245;-77
2023/08/10 07:40:56;;;;;;;3.97;0.93;;;16.20;75.90;;;;;;5027497;28;20506;-76
2023/08/10 07:43:24;;;;;;;4.72;0.70;;;16.20;75.70;;;;;;5027995;28;20070;-76
2023/08/10 07:45:51;;;;;;;4.25;0.77;;;16.30;75.70;;;;;;5028150;28;20482;-76
2023/08/10 07:48:17;;;;;;;3.60;0.80;;;16.30;75.70;;;;;;5026663;28;20187;-77
2023/08/10 07:50:46;;;;;;;4.40;1.00;;;16.40;75.70;;;;;;5022238;28;20627;-77
2023/08/10 07:53:16;;;;;;;5.40;0.70;;;16.40;75.50;;;;;;5022067;28;20050;-77
2023/08/10 07:55:43;;;;;;;3.45;0.63;;;16.40;75.10;;;;;;5001272;28;20153;-77
2023/08/10 07:58:12;;;;;;;3.75;0.82;;;16.50;74.80;;;;;;5018437;28;20057;-77
2023/08/10 08:00:39;;;;;;;5.37;0.80;;;16.50;74.90;;;;;;4998753;28;20500;-77
2023/08/10 08:03:08;;;;;;;3.88;0.85;;;16.50;74.80;;;;;;5016878;28;20655;-75
2023/08/10 08:05:37;;;;;;;3.63;0.70;;;16.50;74.50;;;;;;5038649;28;20101;-75
2023/08/10 08:08:06;;;;;;;3.35;0.82;;;16.60;74.10;;;;;;5018769;28;20136;-75
2023/08/10 08:10:33;;;;;;;4.05;1.10;;;16.60;74.00;;;;;;5016139;28;20050;-75
2023/08/10 08:13:02;;;;;;;5.10;1.10;;;16.60;74.00;;;;;;5015258;28;20348;-75
2023/08/10 08:15:38;;;;;;;5.28;1.00;;;16.60;74.10;;;;;;5014059;28;20760;-76
2023/08/10 08:18:41;;;;;;;3.28;0.85;;;16.60;74.40;;;;;;5025273;28;20050;-75
2023/08/10 08:21:09;;;;;;;3.63;1.00;;;16.70;74.20;;;;;;5018963;28;20054;-76
2023/08/10 08:23:36;;;;;;;5.15;1.13;;;16.70;74.20;;;;;;5027244;28;20136;-76
2023/08/10 08:26:05;;;;;;;5.50;1.10;;;16.70;74.20;;;;;;5021874;28;21030;-76
2023/08/10 08:28:33;;;;;;;5.80;1.35;;;16.80;74.40;;;;;;5026981;28;20344;-76
2023/08/10 08:31:01;;;;;;;3.53;1.00;;;16.80;74.20;;;;;;5019660;28;20129;-76
2023/08/10 08:33:29;;;;;;;5.00;1.10;;;16.80;74.30;;;;;;5021670;28;20043;-76
2023/08/10 08:35:56;;;;;;;5.53;1.00;;;16.80;74.20;;;;;;5021298;28;20052;-76
2023/08/10 08:38:24;;;;;;;4.23;1.10;;;16.90;74.10;;;;;;5020929;28;20200;-76
2023/08/10 08:40:51;;;;;;;3.78;0.70;;;16.90;73.80;;;;;;5020433;28;20296;-76
2023/08/10 08:43:19;;;;;;;7.18;0.90;;;16.90;73.80;;;;;;5027307;28;20046;-77
2023/08/10 08:45:46;;;;;;;4.53;0.90;;;16.90;73.70;;;;;;5012493;28;20160;-77
2023/08/10 08:48:17;;;;;;;2.85;0.90;;;16.90;73.60;;;;;;5031057;28;20050;-77
2023/08/10 08:50:46;;;;;;;4.70;1.17;;;16.90;73.70;;;;;;5024815;28;20050;-76
2023/08/10 08:53:15;;;;;;;5.85;1.33;;;16.90;73.60;;;;;;5022062;28;20267;-76
2023/08/10 08:55:43;;;;;;;4.22;0.80;;;17.00;73.50;;;;;;5007235;28;20053;-76
2023/08/10 08:58:11;;;;;;;4.97;0.82;;;17.00;73.30;;;;;;5029707;28;20244;-77
2023/08/10 09:00:48;;;;;;;3.47;0.90;;;17.00;73.20;;;;;;5024231;28;20053;-76
2023/08/10 09:03:17;;;;;;;4.70;1.10;;;17.00;73.40;;;;;;5021518;28;20128;-75
2023/08/10 09:05:45;;;;;;;4.70;1.13;;;17.00;73.60;;;;;;5021955;28;20286;-75
2023/08/10 09:08:14;;;;;;;5.40;1.13;;;17.00;73.50;;;;;;5021107;28;20050;-75
2023/08/10 09:10:45;;;;;;;6.32;1.10;;;17.00;73.30;;;;;;5019567;28;20059;-76
2023/08/10 09:13:15;;;;;;;4.72;1.05;;;17.00;73.20;;;;;;5001640;28;20957;-76
2023/08/10 09:15:44;;;;;;;5.17;1.07;;;17.00;73.40;;;;;;5024510;28;20634;-78
2023/08/10 09:18:11;;;;;;;6.18;1.25;;;17.00;73.20;;;;;;5016428;28;20254;-77
2023/08/10 09:20:39;;;;;;;2.85;0.88;;;17.00;73.50;;;;;;5027654;28;20057;-77
2023/08/10 09:23:07;;;;;;;4.90;1.10;;;17.00;73.50;;;;;;5013418;28;20057;-75
2023/08/10 09:25:43;;;;;;;6.53;1.20;;;17.00;73.30;;;;;;5024378;28;20164;-76
2023/08/10 09:28:12;;;;;;;4.43;1.40;;;17.00;73.30;;;;;;5019156;28;20590;-76
2023/08/10 09:30:42;;;;;;;6.40;1.10;;;17.00;73.40;;;;;;5023473;28;20257;-75
2023/08/10 09:33:28;;;;;;;4.47;1.00;;;17.10;73.30;;;;;;5013721;28;20130;-76
2023/08/10 09:36:01;;;;;;;4.88;1.00;;;17.10;73.20;;;;;;5017894;28;20698;-76
2023/08/10 09:38:28;;;;;;;3.90;0.98;;;17.00;73.30;;;;;;5020420;28;20535;-76
2023/08/10 09:41:11;;;;;;;4.63;0.90;;;17.10;73.50;;;;;;5023902;28;20093;-76
2023/08/10 09:43:39;;;;;;;4.13;0.90;;;17.10;73.50;;;;;;5020872;28;20364;-76
2023/08/10 09:46:08;;;;;;;4.93;0.68;;;17.20;73.50;;;;;;5011739;28;20543;-76
2023/08/10 09:48:36;;;;;;;4.22;1.10;;;17.20;73.40;;;;;;5002084;28;20052;-76
2023/08/10 09:51:06;;;;;;;6.20;1.15;;;17.20;73.50;;;;;;5024459;28;20061;-75
2023/08/10 09:53:34;;;;;;;4.50;1.00;;;17.20;73.40;;;;;;5026910;28;20162;-76
2023/08/10 09:56:02;;;;;;;5.07;0.93;;;17.20;73.30;;;;;;5016828;28;20361;-76
2023/08/10 09:58:30;;;;;;;4.45;1.10;;;17.20;73.40;;;;;;5017602;28;20781;-76
2023/08/10 10:00:57;;;;;;;5.15;0.98;;;17.20;73.40;;;;;;5022977;28;20050;-76
2023/08/10 10:03:29;;;;;;;3.95;1.20;;;17.20;73.20;;;;;;5024644;28;21023;-75
2023/08/10 10:05:57;;;;;;;4.57;0.90;;;17.20;73.30;;;;;;5020158;28;20054;-76
2023/08/10 10:08:26;;;;;;;4.97;1.30;;;17.20;73.40;;;;;;5017822;28;20687;-75
2023/08/10 10:10:57;;;;;;;5.60;1.20;;;17.20;73.60;;;;;;5010174;28;20084;-75
2023/08/10 10:13:25;;;;;;;3.83;1.10;;;17.30;73.60;;;;;;5011480;28;20049;-75
2023/08/10 10:15:54;;;;;;;4.97;1.13;;;17.30;73.70;;;;;;5022956;28;20447;-75
2023/08/10 10:18:22;;;;;;;3.93;1.20;;;17.30;73.50;;;;;;5027509;28;20086;-75
2023/08/10 10:20:50;;;;;;;4.50;1.20;;;17.40;73.30;;;;;;5043298;28;20303;-76
2023/08/10 10:23:19;;;;;;;3.88;1.00;;;17.40;73.30;;;;;;5028272;28;20060;-76
2023/08/10 10:26:01;;;;;;;5.50;1.30;;;17.40;73.30;;;;;;5021980;28;20046;-76
2023/08/10 10:28:30;;;;;;;5.40;1.30;;;17.40;73.30;;;;;;5015789;28;20201;-76
2023/08/10 10:31:07;;;;;;;4.90;1.43;;;17.40;73.20;;;;;;5016359;28;20121;-76
2023/08/10 10:33:37;;;;;;;4.32;1.45;;;17.40;73.00;;;;;;5014428;28;20347;-76
2023/08/10 10:36:12;;;;;;;4.97;1.17;;;17.40;73.10;;;;;;5016430;28;20061;-76
2023/08/10 10:38:40;;;;;;;5.50;1.30;;;17.50;73.20;;;;;;5018289;28;20054;-76
2023/08/10 10:41:15;;;;;;;4.65;1.25;;;17.50;73.30;;;;;;5021969;28;20496;-75
2023/08/10 10:43:43;;;;;;;4.07;1.00;;;17.50;73.40;;;;;;5022560;28;20076;-77
2023/08/10 10:46:36;;;;;;;5.13;1.50;;;17.50;73.40;;;;;;5023625;28;20691;-77
2023/08/10 10:49:07;;;;;;;5.60;1.40;;;17.50;73.50;;;;;;5011989;28;20165;-77
2023/08/10 10:51:48;;;;;;;4.78;1.20;;;17.50;73.70;;;;;;5020949;28;20058;-76
2023/08/10 10:54:16;;;;;;;5.50;1.60;;;17.50;73.80;;;;;;5026959;28;20058;-76
2023/08/10 10:56:45;;;;;;;5.17;1.57;;;17.60;73.70;;;;;;5023324;28;20133;-76
2023/08/10 10:59:13;;;;;;;3.55;1.25;;;17.60;73.50;;;;;;5027615;28;20273;-75
2023/08/10 11:01:41;;;;;;;6.00;1.70;;;17.60;73.40;;;;;;5011212;28;20046;-76
2023/08/10 11:04:08;;;;;;;4.35;1.58;;;17.60;73.50;;;;;;5016210;28;20105;-76
2023/08/10 11:06:37;;;;;;;4.53;1.98;;;17.60;73.50;;;;;;5020217;28;20134;-76
2023/08/10 11:09:07;;;;;;;4.77;1.30;;;17.60;73.70;;;;;;5013352;28;20208;-77
2023/08/10 11:11:34;;;;;;;6.28;1.88;;;17.70;74.00;;;;;;5020323;28;20278;-78
2023/08/10 11:14:03;;;;;;;5.05;1.70;;;17.70;74.00;;;;;;5015719;28;20052;-76
2023/08/10 11:16:42;;;;;;;5.85;1.60;;;17.80;74.10;;;;;;5016038;28;20046;-76
2023/08/10 11:19:11;;;;;;;7.18;1.63;;;17.80;74.10;;;;;;5016790;28;20051;-75
2023/08/10 11:21:39;;;;;;;7.23;1.40;;;17.80;73.80;;;;;;5016058;28;20058;-76
2023/08/10 11:24:08;;;;;;;5.15;1.50;;;17.80;73.70;;;;;;5023800;28;20310;-76
2023/08/10 11:26:36;;;;;;;5.13;1.63;;;17.80;73.70;;;;;;5027541;28;20050;-76
2023/08/10 11:29:06;;;;;;;5.78;1.23;;;17.90;73.50;;;;;;5020654;28;20074;-76
2023/08/10 11:31:39;;;;;;;5.45;1.55;;;17.90;73.40;;;;;;5012691;28;20145;-76
2023/08/10 11:34:22;;;;;;;4.30;1.30;;;17.90;73.40;;;;;;5017832;28;20049;-75
2023/08/10 11:36:51;;;;;;;6.75;1.67;;;18.00;73.30;;;;;;5026435;28;20300;-75
2023/08/10 11:39:20;;;;;;;6.40;1.50;;;18.00;73.20;;;;;;5014792;28;21150;-73
2023/08/10 11:41:49;;;;;;;4.65;1.30;;;18.00;73.20;;;;;;5026635;28;20046;-71
2023/08/10 11:44:28;;;;;;;4.78;2.00;;;18.00;73.20;;;;;;5021434;28;20054;-72
2023/08/10 11:46:57;;;;;;;5.13;1.97;;;18.00;73.20;;;;;;5007395;28;20050;-73
2023/08/10 11:49:27;;;;;;;4.65;2.00;;;18.00;73.40;;;;;;5005388;28;20258;-71
2023/08/10 11:51:56;;;;;;;5.10;1.50;;;18.10;73.80;;;;;;5011022;28;20050;-72
2023/08/10 11:54:29;;;;;;;6.38;1.90;;;18.10;73.80;;;;;;5010688;28;20476;-72
2023/08/10 11:56:56;;;;;;;5.85;1.73;;;18.10;73.80;;;;;;5016096;28;20606;-72
2023/08/10 11:59:23;;;;;;;9.63;2.23;;;18.20;73.90;;;;;;5020415;28;20057;-75
2023/08/10 12:01:57;;;;;;;4.60;1.80;;;18.30;73.40;;;;;;5014951;28;20337;-73
2023/08/10 12:04:30;;;;;;;5.38;1.90;;;18.30;73.20;;;;;;5014739;28;20074;-73
2023/08/10 12:06:57;;;;;;;7.00;1.90;;;18.40;72.80;;;;;;5017775;28;20050;-73
2023/08/10 12:09:28;;;;;;;4.85;1.85;;;18.40;72.70;;;;;;5023682;28;20136;-73
2023/08/10 12:11:55;;;;;;;6.20;1.90;;;18.40;72.70;;;;;;5023200;28;20148;-74
2023/08/10 12:14:24;;;;;;;5.15;2.20;;;18.50;72.90;;;;;;5015664;28;20254;-75
2023/08/10 12:16:52;;;;;;;4.85;1.90;;;18.60;72.80;;;;;;5020340;28;20493;-73
2023/08/10 12:19:20;;;;;;;6.63;2.40;;;18.60;72.70;;;;;;5012047;28;20054;-73
2023/08/10 12:21:47;;;;;;;6.32;2.17;;;18.70;72.50;;;;;;5016637;28;20046;-73
2023/08/10 12:24:15;;;;;;;4.43;1.73;;;18.80;71.80;;;;;;5013454;28;20050;-74
2023/08/10 12:26:42;;;;;;;5.95;2.40;;;18.80;71.80;;;;;;5018683;28;20280;-78
2023/08/10 12:29:09;;;;;;;5.38;2.42;;;18.90;71.80;;;;;;5016452;28;20058;-77
2023/08/10 12:31:36;;;;;;;5.95;2.10;;;18.90;71.00;;;;;;5016926;28;20228;-77
2023/08/10 12:34:05;;;;;;;6.00;2.47;;;19.00;70.80;;;;;;5013016;28;20046;-76
2023/08/10 12:36:32;;;;;;;5.93;2.43;;;19.00;70.10;;;;;;5020961;28;20060;-76
2023/08/10 12:39:01;;;;;;;6.22;2.60;;;19.00;70.10;;;;;;5011612;28;20254;-76
2023/08/10 12:41:29;;;;;;;5.85;2.20;;;19.10;69.60;;;;;;5020674;28;20057;-76
2023/08/10 12:43:56;;;;;;;8.48;3.00;;;19.10;69.30;;;;;;5014655;28;20053;-75
2023/08/10 12:46:23;;;;;;;5.65;2.60;;;19.10;68.70;;;;;;5018389;28;20077;-77
2023/08/10 12:48:50;;;;;;;5.27;2.77;;;19.10;68.60;;;;;;5017236;28;20105;-77
2023/08/10 12:51:19;;;;;;;6.53;2.97;;;19.20;68.50;;;;;;5020395;28;20826;-77
2023/08/10 12:53:47;;;;;;;5.82;2.58;;;19.20;68.70;;;;;;5015973;28;20081;-77
2023/08/10 12:56:14;;;;;;;7.38;2.85;;;19.20;68.70;;;;;;5014537;28;20053;-76
2023/08/10 12:58:41;;;;;;;6.22;2.75;;;19.20;68.60;;;;;;5013882;28;20112;-77